Time;durP1;ratioP1;P1;durP2;ratioP2;P2;SDS_P1;SDS_P2;PMS_P1;PMS_P2;Temp;Humidity;BMP_temperature;BMP_pressure;BME280_temperature;BME280_humidity;BME280_pressure;Samples;Min_cycle;Max_cycle;Signal;HPM_P1;HPM_P2
2023/09/21 00:01:03;;;;;;;4.00;1.10;;;;;;;;;;5073747;28;20023;-87
2023/09/21 00:03:29;;;;;;;3.35;1.20;;;;;;;;;;5074850;28;20024;-86
2023/09/21 00:05:56;;;;;;;3.58;1.17;;;;;;;;;;5074654;28;20031;-87
2023/09/21 00:08:23;;;;;;;5.05;1.50;;;;;;;;;;5074477;28;20063;-87
2023/09/21 00:10:49;;;;;;;2.92;1.10;;;;;;;;;;5072667;28;20012;-87
2023/09/21 00:13:14;;;;;;;9.05;1.80;;;;;;;;;;5071077;28;20024;-85
2023/09/21 00:15:40;;;;;;;2.05;1.20;;;;;;;;;;5077644;28;20069;-86
2023/09/21 00:18:06;;;;;;;4.53;1.35;;;;;;;;;;5072878;28;20396;-85
2023/09/21 00:20:48;;;;;;;3.35;1.30;;;;;;;;;;5072201;28;20028;-86
2023/09/21 00:23:14;;;;;;;;;;;;;;;;;;5071373;28;20031;-87
2023/09/21 00:25:40;;;;;;;3.92;1.25;;;;;;;;;;5072000;28;19904;-88
2023/09/21 00:28:07;;;;;;;2.05;1.02;;;;;;;;;;5073183;28;20048;-87
2023/09/21 00:30:37;;;;;;;4.40;1.55;;;;;;;;;;5074797;28;20024;-87
2023/09/21 00:33:08;;;;;;;2.35;1.00;;;;;;;;;;5076326;28;20376;-88
2023/09/21 00:35:39;;;;;;;4.95;1.30;;;;;;;;;;5076399;28;20028;-88
2023/09/21 00:38:07;;;;;;;8.10;1.40;;;;;;;;;;5075323;28;20442;-88
2023/09/21 00:40:38;;;;;;;7.43;1.45;;;;;;;;;;5075012;28;20066;-88
2023/09/21 00:43:08;;;;;;;6.00;1.58;;;;;;;;;;5101345;28;20028;-88
2023/09/21 00:45:37;;;;;;;3.90;0.93;;;;;;;;;;5075968;28;20333;-87
2023/09/21 00:48:04;;;;;;;1.90;1.00;;;;;;;;;;5076632;28;20379;-88
2023/09/21 00:50:30;;;;;;;4.60;1.00;;;;;;;;;;5074031;28;20028;-87
2023/09/21 00:52:56;;;;;;;2.65;1.38;;;;;;;;;;5074478;28;20320;-88
2023/09/21 00:55:24;;;;;;;2.53;1.15;;;;;;;;;;5064272;28;20480;-87
2023/09/21 00:58:00;;;;;;;2.83;1.30;;;;;;;;;;5073178;28;20021;-87
2023/09/21 01:00:26;;;;;;;3.05;1.30;;;;;;;;;;5074720;28;20040;-85
2023/09/21 01:02:53;;;;;;;3.17;1.15;;;;;;;;;;5069419;28;20390;-87
2023/09/21 01:05:21;;;;;;;2.70;1.20;;;;;;;;;;5067445;28;20017;-87
2023/09/21 01:07:48;;;;;;;3.38;1.30;;;;;;;;;;5074989;28;20388;-87
2023/09/21 01:10:13;;;;;;;5.97;1.50;;;;;;;;;;5074871;28;20404;-87
2023/09/21 01:12:48;;;;;;;2.53;1.25;;;;;;;;;;5076157;28;20031;-88
2023/09/21 01:15:16;;;;;;;2.50;1.17;;;;;;;;;;5075376;28;20020;-87
2023/09/21 01:17:42;;;;;;;2.55;1.10;;;;;;;;;;5072932;28;20017;-88
2023/09/21 01:20:25;;;;;;;2.83;1.30;;;;;;;;;;5064078;28;20032;-86
2023/09/21 01:23:00;;;;;;;2.30;1.20;;;;;;;;;;5076621;28;20028;-88
2023/09/21 01:25:27;;;;;;;3.03;1.10;;;;;;;;;;5066636;28;20384;-87
2023/09/21 01:27:53;;;;;;;2.00;1.08;;;;;;;;;;5071950;28;20040;-88
2023/09/21 01:30:22;;;;;;;5.43;1.45;;;;;;;;;;5076653;28;20013;-86
2023/09/21 01:32:48;;;;;;;2.97;1.50;;;;;;;;;;5074458;28;20021;-88
2023/09/21 01:35:14;;;;;;;1.58;0.90;;;;;;;;;;5074916;28;20115;-88
2023/09/21 01:37:40;;;;;;;2.00;1.27;;;;;;;;;;5065010;28;20063;-87
2023/09/21 01:40:13;;;;;;;3.58;1.10;;;;;;;;;;5074435;28;20021;-87
2023/09/21 01:42:38;;;;;;;2.13;1.15;;;;;;;;;;5073147;28;20112;-88
2023/09/21 01:45:13;;;;;;;1.73;1.00;;;;;;;;;;5063893;28;20045;-87
2023/09/21 01:47:39;;;;;;;2.42;0.93;;;;;;;;;;5075048;28;20364;-87
2023/09/21 01:50:06;;;;;;;2.25;1.02;;;;;;;;;;5074859;28;20027;-88
2023/09/21 01:52:31;;;;;;;4.22;1.08;;;;;;;;;;5067782;28;20025;-87
2023/09/21 01:54:59;;;;;;;5.72;1.23;;;;;;;;;;5074198;28;20017;-88
2023/09/21 01:57:25;;;;;;;3.40;1.20;;;;;;;;;;5053624;28;20025;-88
2023/09/21 01:59:50;;;;;;;2.42;1.23;;;;;;;;;;5066003;28;20031;-87
2023/09/21 02:02:20;;;;;;;3.05;1.40;;;;;;;;;;5073320;28;20048;-87
2023/09/21 02:04:46;;;;;;;3.10;1.23;;;;;;;;;;5073068;28;20048;-87
2023/09/21 02:07:12;;;;;;;4.60;1.25;;;;;;;;;;5074801;28;20043;-87
2023/09/21 02:09:37;;;;;;;3.45;1.25;;;;;;;;;;5073798;28;20024;-87
2023/09/21 02:12:03;;;;;;;2.55;1.00;;;;;;;;;;5058421;28;20075;-87
2023/09/21 02:14:28;;;;;;;4.57;1.30;;;;;;;;;;5070806;28;20032;-87
2023/09/21 02:16:54;;;;;;;2.67;1.27;;;;;;;;;;5073527;28;20057;-87
2023/09/21 02:19:20;;;;;;;8.10;1.20;;;;;;;;;;5073103;28;20464;-87
2023/09/21 02:21:45;;;;;;;3.88;1.30;;;;;;;;;;5073565;28;20029;-87
2023/09/21 02:24:11;;;;;;;4.72;1.13;;;;;;;;;;5073389;28;20032;-87
2023/09/21 02:26:37;;;;;;;3.83;1.30;;;;;;;;;;5064685;28;20078;-86
2023/09/21 02:29:04;;;;;;;3.38;1.13;;;;;;;;;;5068580;28;20032;-86
2023/09/21 02:31:29;;;;;;;2.35;1.20;;;;;;;;;;5071907;28;20025;-87
2023/09/21 02:33:54;;;;;;;1.45;0.90;;;;;;;;;;5074056;28;20017;-88
2023/09/21 02:36:20;;;;;;;6.03;1.13;;;;;;;;;;5073463;28;20020;-87
2023/09/21 02:38:46;;;;;;;2.38;1.00;;;;;;;;;;5074070;28;20359;-86
2023/09/21 02:41:11;;;;;;;2.60;1.13;;;;;;;;;;5061318;28;20029;-87
2023/09/21 02:43:39;;;;;;;2.75;1.25;;;;;;;;;;5073690;28;20024;-86
2023/09/21 02:46:04;;;;;;;3.30;1.27;;;;;;;;;;5074639;28;20119;-87
2023/09/21 02:48:30;;;;;;;3.08;1.08;;;;;;;;;;5057272;28;20060;-87
2023/09/21 02:50:59;;;;;;;4.25;1.10;;;;;;;;;;5064655;28;20013;-87
2023/09/21 02:53:24;;;;;;;7.75;1.27;;;;;;;;;;5062457;28;20017;-87
2023/09/21 02:55:50;;;;;;;2.75;1.15;;;;;;;;;;5076638;28;20042;-87
2023/09/21 02:58:16;;;;;;;3.78;1.10;;;;;;;;;;5076426;28;20020;-87
2023/09/21 03:00:43;;;;;;;1.70;1.00;;;;;;;;;;5075467;28;20078;-88
2023/09/21 03:03:10;;;;;;;4.15;1.10;;;;;;;;;;5073171;28;20032;-87
2023/09/21 03:05:38;;;;;;;3.97;1.20;;;;;;;;;;5059806;28;20023;-86
2023/09/21 03:08:05;;;;;;;3.30;0.90;;;;;;;;;;5072665;28;20111;-85
2023/09/21 03:10:31;;;;;;;2.75;1.30;;;;;;;;;;5073458;28;20017;-87
2023/09/21 03:12:58;;;;;;;4.78;1.10;;;;;;;;;;5065492;28;20078;-86
2023/09/21 03:15:24;;;;;;;2.45;0.82;;;;;;;;;;5067317;28;20108;-87
2023/09/21 03:17:52;;;;;;;4.22;1.15;;;;;;;;;;5060652;28;20044;-87
2023/09/21 03:22:55;;;;;;;3.45;1.20;;;;;;;;;;5074367;28;20077;-85
2023/09/21 03:25:32;;;;;;;3.13;1.20;;;;;;;;;;5072652;28;20017;-87
2023/09/21 03:27:59;;;;;;;2.45;1.23;;;;;;;;;;5072873;28;20036;-87
2023/09/21 03:30:24;;;;;;;2.28;1.20;;;;;;;;;;5070842;28;20070;-87
2023/09/21 03:32:50;;;;;;;3.15;1.20;;;;;;;;;;5067997;28;20468;-87
2023/09/21 03:35:16;;;;;;;5.93;2.05;;;;;;;;;;5073075;28;20017;-87
2023/09/21 03:37:41;;;;;;;3.40;1.20;;;;;;;;;;5066041;28;20023;-87
2023/09/21 03:40:07;;;;;;;4.30;1.33;;;;;;;;;;5058504;28;20095;-87
2023/09/21 03:42:33;;;;;;;5.07;1.23;;;;;;;;;;5072061;28;20040;-87
2023/09/21 03:44:58;;;;;;;5.85;1.40;;;;;;;;;;5058702;28;20081;-87
2023/09/21 03:47:23;;;;;;;2.10;1.08;;;;;;;;;;5071936;28;20214;-86
2023/09/21 03:49:49;;;;;;;4.18;1.40;;;;;;;;;;5072175;28;20451;-87
2023/09/21 03:52:16;;;;;;;4.03;1.17;;;;;;;;;;5072447;28;20035;-87
2023/09/21 03:54:46;;;;;;;2.55;1.30;;;;;;;;;;5066724;28;20027;-87
2023/09/21 03:57:15;;;;;;;3.33;1.20;;;;;;;;;;5073407;28;20021;-88
2023/09/21 03:59:41;;;;;;;4.50;1.20;;;;;;;;;;5071890;28;20325;-87
2023/09/21 04:02:09;;;;;;;1.70;1.10;;;;;;;;;;5072653;28;20013;-87
2023/09/21 04:04:34;;;;;;;5.18;1.30;;;;;;;;;;5078036;28;20028;-88
2023/09/21 04:07:00;;;;;;;2.72;1.10;;;;;;;;;;5078375;28;20174;-87
2023/09/21 04:09:25;;;;;;;3.95;0.95;;;;;;;;;;5078969;28;20016;-87
2023/09/21 04:11:51;;;;;;;2.30;1.10;;;;;;;;;;5078533;28;20621;-87
2023/09/21 04:14:17;;;;;;;7.13;1.40;;;;;;;;;;5079680;28;20021;-87
2023/09/21 04:16:42;;;;;;;2.47;1.27;;;;;;;;;;5079959;28;20021;-87
2023/09/21 04:19:10;;;;;;;2.00;1.00;;;;;;;;;;5063759;28;20025;-87
2023/09/21 04:21:36;;;;;;;2.72;1.50;;;;;;;;;;5076569;28;20025;-87
2023/09/21 04:24:02;;;;;;;3.10;1.48;;;;;;;;;;5076058;28;20398;-87
2023/09/21 04:26:28;;;;;;;2.00;1.30;;;;;;;;;;5063084;28;20021;-87
2023/09/21 04:28:53;;;;;;;3.17;1.20;;;;;;;;;;5108446;28;20032;-87
2023/09/21 04:31:19;;;;;;;3.58;1.35;;;;;;;;;;5072045;28;20024;-87
2023/09/21 04:33:45;;;;;;;4.30;1.20;;;;;;;;;;5075988;28;20020;-86
2023/09/21 04:36:10;;;;;;;2.70;1.10;;;;;;;;;;5064128;28;20332;-86
2023/09/21 04:38:37;;;;;;;1.90;1.10;;;;;;;;;;5060822;28;20024;-86
2023/09/21 04:41:04;;;;;;;3.20;1.20;;;;;;;;;;5075881;28;20032;-86
2023/09/21 04:43:29;;;;;;;3.33;1.50;;;;;;;;;;5071893;28;20025;-87
2023/09/21 04:45:54;;;;;;;1.75;1.08;;;;;;;;;;5065103;28;20074;-86
2023/09/21 04:48:20;;;;;;;4.60;1.40;;;;;;;;;;5074676;28;20021;-87
2023/09/21 04:50:48;;;;;;;3.55;1.10;;;;;;;;;;5075626;28;20016;-87
2023/09/21 04:53:15;;;;;;;3.00;1.20;;;;;;;;;;5069088;28;20444;-86
2023/09/21 04:55:40;;;;;;;2.28;1.23;;;;;;;;;;5069340;28;20075;-87
2023/09/21 04:58:06;;;;;;;2.30;1.13;;;;;;;;;;5066216;28;20017;-86
2023/09/21 05:00:31;;;;;;;3.90;1.67;;;;;;;;;;5068553;28;20158;-86
2023/09/21 05:02:56;;;;;;;2.42;1.33;;;;;;;;;;5076388;28;20017;-87
2023/09/21 05:05:26;;;;;;;2.08;1.15;;;;;;;;;;5073518;28;20021;-87
2023/09/21 05:07:52;;;;;;;3.63;1.40;;;;;;;;;;5063232;28;20020;-87
2023/09/21 05:10:17;;;;;;;3.10;1.33;;;;;;;;;;5070027;28;20379;-87
2023/09/21 05:12:43;;;;;;;2.42;1.48;;;;;;;;;;5074688;28;20487;-87
2023/09/21 05:15:11;;;;;;;2.78;1.33;;;;;;;;;;5074788;28;20020;-87
2023/09/21 05:17:39;;;;;;;8.32;1.40;;;;;;;;;;5074866;28;20423;-86
2023/09/21 05:20:06;;;;;;;3.65;1.23;;;;;;;;;;5072279;28;20470;-87
2023/09/21 05:22:32;;;;;;;1.80;1.25;;;;;;;;;;5060859;28;20383;-87
2023/09/21 05:24:59;;;;;;;1.80;1.02;;;;;;;;;;5074956;28;20017;-87
2023/09/21 05:27:24;;;;;;;3.85;1.35;;;;;;;;;;5075288;28;20008;-87
2023/09/21 05:29:49;;;;;;;2.58;1.45;;;;;;;;;;5075958;28;20032;-87
2023/09/21 05:32:15;;;;;;;5.43;1.63;;;;;;;;;;5076180;28;20028;-87
2023/09/21 05:34:40;;;;;;;7.97;1.80;;;;;;;;;;5074681;28;20474;-87
2023/09/21 05:37:07;;;;;;;7.68;1.60;;;;;;;;;;5077051;28;20044;-87
2023/09/21 05:39:32;;;;;;;3.15;1.80;;;;;;;;;;5075675;28;20547;-88
2023/09/21 05:41:58;;;;;;;4.28;1.70;;;;;;;;;;5076380;28;20048;-87
2023/09/21 05:44:28;;;;;;;3.80;1.85;;;;;;;;;;5063096;28;20025;-88
2023/09/21 05:46:53;;;;;;;5.57;2.00;;;;;;;;;;5068762;28;20017;-87
2023/09/21 05:49:22;;;;;;;7.60;1.75;;;;;;;;;;5063862;28;20472;-88
2023/09/21 05:51:56;;;;;;;4.20;1.73;;;;;;;;;;5059040;28;20013;-88
2023/09/21 05:54:23;;;;;;;2.40;1.52;;;;;;;;;;5073974;28;20066;-88
2023/09/21 05:56:50;;;;;;;6.07;1.80;;;;;;;;;;5060010;28;20468;-88
2023/09/21 05:59:17;;;;;;;3.10;1.40;;;;;;;;;;5073746;28;20021;-87
2023/09/21 06:01:42;;;;;;;5.80;1.80;;;;;;;;;;5072074;28;20124;-87
2023/09/21 06:04:08;;;;;;;3.83;1.80;;;;;;;;;;5072341;28;20034;-87
2023/09/21 06:06:34;;;;;;;3.50;1.60;;;;;;;;;;5067931;28;20016;-88
2023/09/21 06:08:59;;;;;;;2.97;1.75;;;;;;;;;;5074928;28;20089;-87
2023/09/21 06:11:29;;;;;;;2.40;1.58;;;;;;;;;;5074061;28;20024;-87
2023/09/21 06:13:54;;;;;;;4.35;1.85;;;;;;;;;;5072140;28;20036;-87
2023/09/21 06:16:21;;;;;;;4.03;1.58;;;;;;;;;;5074102;28;20017;-87
2023/09/21 06:18:48;;;;;;;6.47;2.00;;;;;;;;;;5073612;28;20395;-88
2023/09/21 06:21:13;;;;;;;5.47;2.10;;;;;;;;;;5071616;28;20557;-88
2023/09/21 06:23:39;;;;;;;3.40;1.67;;;;;;;;;;5073466;28;20020;-89
2023/09/21 06:26:32;;;;;;;2.97;1.92;;;;;;;;;;5066259;28;20029;-89
2023/09/21 06:29:01;;;;;;;3.85;2.05;;;;;;;;;;5068131;28;20380;-88
2023/09/21 06:31:27;;;;;;;3.78;1.77;;;;;;;;;;5064723;28;20017;-88
2023/09/21 06:33:57;;;;;;;4.68;2.10;;;;;;;;;;5057074;28;20097;-89
2023/09/21 06:36:23;;;;;;;3.90;2.10;;;;;;;;;;5068331;28;20047;-89
2023/09/21 06:38:49;;;;;;;6.22;2.10;;;;;;;;;;5061561;28;20024;-88
2023/09/21 06:41:14;;;;;;;3.95;1.90;;;;;;;;;;5073677;28;20147;-90
2023/09/21 06:43:42;;;;;;;2.75;1.70;;;;;;;;;;5071752;28;20565;-91
2023/09/21 06:46:07;;;;;;;5.57;1.90;;;;;;;;;;5063885;28;20032;-91
2023/09/21 06:48:36;;;;;;;2.72;1.70;;;;;;;;;;5071272;28;20029;-90
2023/09/21 06:51:01;;;;;;;6.25;2.25;;;;;;;;;;5066667;28;20016;-89
2023/09/21 06:53:29;;;;;;;3.13;1.92;;;;;;;;;;5060354;28;20021;-90
2023/09/21 06:55:54;;;;;;;3.75;2.20;;;;;;;;;;5068647;28;20157;-88
2023/09/21 06:58:30;;;;;;;5.95;1.90;;;;;;;;;;5067307;28;20127;-90
2023/09/21 07:00:57;;;;;;;4.78;1.90;;;;;;;;;;5073971;28;20024;-90
2023/09/21 07:03:23;;;;;;;4.88;2.00;;;;;;;;;;5071681;28;20032;-89
2023/09/21 07:05:48;;;;;;;4.07;1.70;;;;;;;;;;5072332;28;20490;-89
2023/09/21 07:08:14;;;;;;;3.50;1.67;;;;;;;;;;5072050;28;20117;-89
2023/09/21 07:10:39;;;;;;;2.42;1.42;;;;;;;;;;5087575;28;20031;-90
2023/09/21 07:13:06;;;;;;;3.10;1.45;;;;;;;;;;5073125;28;20078;-89
2023/09/21 07:15:32;;;;;;;3.88;2.03;;;;;;;;;;5067362;28;20672;-89
2023/09/21 07:17:58;;;;;;;2.88;1.50;;;;;;;;;;5070462;28;20028;-89
2023/09/21 07:20:26;;;;;;;2.53;1.23;;;;;;;;;;5060647;28;20037;-88
2023/09/21 07:22:51;;;;;;;4.57;1.90;;;;;;;;;;5061040;28;20020;-90
2023/09/21 07:25:16;;;;;;;2.88;1.73;;;;;;;;;;5072137;28;20024;-90
2023/09/21 07:27:43;;;;;;;2.63;1.60;;;;;;;;;;5072694;28;20028;-91
2023/09/21 07:30:13;;;;;;;4.10;1.48;;;;;;;;;;5068837;28;20028;-90
2023/09/21 07:32:38;;;;;;;4.35;1.80;;;;;;;;;;5072408;28;20020;-90
2023/09/21 07:35:06;;;;;;;3.42;2.03;;;;;;;;;;5071945;28;20120;-89
2023/09/21 07:37:32;;;;;;;4.88;1.83;;;;;;;;;;5062439;28;20024;-89
2023/09/21 07:39:57;;;;;;;5.13;1.77;;;;;;;;;;5067615;28;20025;-89
2023/09/21 07:42:22;;;;;;;4.18;1.90;;;;;;;;;;5070656;28;20089;-89
2023/09/21 07:44:48;;;;;;;5.75;1.90;;;;;;;;;;5072410;28;20071;-89
2023/09/21 07:47:14;;;;;;;2.28;1.67;;;;;;;;;;5073702;28;20032;-89
2023/09/21 07:49:39;;;;;;;7.10;2.22;;;;;;;;;;5072610;28;20530;-89
2023/09/21 07:52:05;;;;;;;3.55;2.40;;;;;;;;;;5071842;28;20106;-90
2023/09/21 07:54:31;;;;;;;3.92;1.92;;;;;;;;;;5072626;28;20099;-89
2023/09/21 07:56:59;;;;;;;2.95;1.80;;;;;;;;;;5070743;28;20360;-90
2023/09/21 07:59:24;;;;;;;2.65;1.80;;;;;;;;;;5052357;28;20418;-87
2023/09/21 08:01:53;;;;;;;3.03;1.85;;;;;;;;;;5064021;28;20024;-87
2023/09/21 08:04:20;;;;;;;5.93;2.13;;;;;;;;;;5060462;28;20052;-87
2023/09/21 08:06:45;;;;;;;5.32;1.70;;;;;;;;;;5060731;28;20065;-88
2023/09/21 08:09:13;;;;;;;3.90;1.55;;;;;;;;;;5058523;28;20120;-88
2023/09/21 08:11:38;;;;;;;3.60;1.60;;;;;;;;;;5069761;28;20457;-87
2023/09/21 08:14:06;;;;;;;3.85;1.70;;;;;;;;;;5072052;28;20108;-88
2023/09/21 08:16:32;;;;;;;3.88;2.00;;;;;;;;;;5075567;28;20085;-88
2023/09/21 08:18:58;;;;;;;2.45;1.60;;;;;;;;;;5076652;28;20025;-88
2023/09/21 08:21:24;;;;;;;8.40;1.80;;;;;;;;;;5075589;28;20036;-87
2023/09/21 08:23:49;;;;;;;4.63;2.10;;;;;;;;;;5067774;28;20028;-88
2023/09/21 08:26:15;;;;;;;6.47;1.90;;;;;;;;;;5072878;28;20082;-89
2023/09/21 08:28:40;;;;;;;4.00;1.65;;;;;;;;;;5072676;28;20028;-88
2023/09/21 08:31:09;;;;;;;6.47;1.90;;;;;;;;;;5071604;28;20460;-87
2023/09/21 08:33:34;;;;;;;4.00;1.80;;;;;;;;;;5066437;28;20021;-88
2023/09/21 08:36:00;;;;;;;3.78;2.00;;;;;;;;;;5071197;28;20017;-88
2023/09/21 08:38:26;;;;;;;6.60;2.30;;;;;;;;;;5057588;28;20527;-87
2023/09/21 08:40:52;;;;;;;2.88;1.80;;;;;;;;;;5071434;28;20456;-88
2023/09/21 08:43:22;;;;;;;5.13;1.92;;;;;;;;;;5064979;28;20218;-88
2023/09/21 08:45:50;;;;;;;4.60;2.58;;;;;;;;;;5059606;28;20019;-88
2023/09/21 08:48:18;;;;;;;6.50;2.92;;;;;;;;;;5072682;28;20356;-87
2023/09/21 08:50:44;;;;;;;4.25;2.30;;;;;;;;;;5073870;28;20033;-88
2023/09/21 08:53:12;;;;;;;3.53;2.20;;;;;;;;;;5065379;28;20035;-88
2023/09/21 08:55:38;;;;;;;3.70;2.05;;;;;;;;;;5070681;28;20474;-88
2023/09/21 08:58:05;;;;;;;4.47;2.05;;;;;;;;;;5060388;28;20092;-88
2023/09/21 09:00:34;;;;;;;5.15;1.88;;;;;;;;;;5065244;28;20099;-88
2023/09/21 09:03:00;;;;;;;9.85;2.13;;;;;;;;;;5069617;28;20025;-88
2023/09/21 09:05:26;;;;;;;3.70;1.65;;;;;;;;;;5069953;28;20024;-88
2023/09/21 09:07:51;;;;;;;2.90;1.70;;;;;;;;;;5055122;28;20048;-88
2023/09/21 09:10:18;;;;;;;3.70;1.70;;;;;;;;;;5069857;28;20052;-88
2023/09/21 09:12:43;;;;;;;3.78;1.83;;;;;;;;;;5075991;28;20020;-88
2023/09/21 09:15:09;;;;;;;4.53;1.80;;;;;;;;;;5074077;28;20021;-88
2023/09/21 09:17:35;;;;;;;3.83;1.80;;;;;;;;;;5065149;28;20017;-88
2023/09/21 09:20:03;;;;;;;3.20;1.98;;;;;;;;;;5068865;28;20115;-88
2023/09/21 09:22:31;;;;;;;4.15;2.08;;;;;;;;;;5062912;28;20426;-87
2023/09/21 09:24:58;;;;;;;3.20;1.75;;;;;;;;;;5073640;28;20086;-87
2023/09/21 09:27:24;;;;;;;4.53;1.90;;;;;;;;;;5077387;28;20020;-87
2023/09/21 09:29:52;;;;;;;6.20;1.90;;;;;;;;;;5076457;28;20031;-88
2023/09/21 09:32:18;;;;;;;5.40;2.05;;;;;;;;;;5066709;28;20021;-87
2023/09/21 09:34:46;;;;;;;5.10;1.92;;;;;;;;;;5071486;28;20043;-88
2023/09/21 09:37:15;;;;;;;5.63;1.50;;;;;;;;;;5074367;28;20025;-88
2023/09/21 09:39:44;;;;;;;4.10;1.70;;;;;;;;;;5074820;28;20116;-88
2023/09/21 09:42:10;;;;;;;7.82;1.52;;;;;;;;;;5068997;28;20020;-88
2023/09/21 09:44:40;;;;;;;5.25;1.65;;;;;;;;;;5067019;28;20046;-87
2023/09/21 09:47:12;;;;;;;5.45;2.03;;;;;;;;;;5065123;28;20028;-88
2023/09/21 09:49:39;;;;;;;3.20;1.50;;;;;;;;;;5074307;28;20029;-88
2023/09/21 09:52:06;;;;;;;6.10;1.85;;;;;;;;;;5070124;28;20055;-88
2023/09/21 09:54:31;;;;;;;4.85;1.83;;;;;;;;;;5064826;28;20070;-88
2023/09/21 09:56:58;;;;;;;4.90;0.95;;;;;;;;;;5060852;28;20028;-88
2023/09/21 09:59:26;;;;;;;4.80;1.48;;;;;;;;;;5074168;28;20491;-88
2023/09/21 10:01:53;;;;;;;5.25;1.20;;;;;;;;;;5068401;28;20032;-88
2023/09/21 10:04:21;;;;;;;4.97;1.40;;;;;;;;;;5070427;28;20088;-88
2023/09/21 10:06:49;;;;;;;2.53;1.60;;;;;;;;;;5071096;28;20447;-88
2023/09/21 10:09:15;;;;;;;5.45;1.40;;;;;;;;;;5072087;28;20047;-88
2023/09/21 10:11:46;;;;;;;2.13;1.27;;;;;;;;;;5071467;28;20120;-88
2023/09/21 10:14:15;;;;;;;3.67;1.37;;;;;;;;;;5072669;28;20004;-88
2023/09/21 10:16:49;;;;;;;4.88;1.35;;;;;;;;;;5070983;28;20162;-88
2023/09/21 10:19:17;;;;;;;2.53;1.25;;;;;;;;;;5103553;28;20308;-88
2023/09/21 10:21:45;;;;;;;2.53;1.02;;;;;;;;;;5073909;28;20048;-89
2023/09/21 10:24:14;;;;;;;5.53;1.88;;;;;;;;;;5073664;28;20422;-88
2023/09/21 10:26:45;;;;;;;6.60;1.20;;;;;;;;;;5073732;28;20019;-89
2023/09/21 10:29:12;;;;;;;2.58;1.30;;;;;;;;;;5073737;28;20071;-88
2023/09/21 10:31:38;;;;;;;2.50;1.00;;;;;;;;;;5069714;28;20044;-89
2023/09/21 10:34:03;;;;;;;2.17;0.85;;;;;;;;;;5064403;28;20016;-88
2023/09/21 10:36:30;;;;;;;4.53;1.25;;;;;;;;;;5072227;28;20019;-89
2023/09/21 10:39:24;;;;;;;5.43;0.55;;;;;;;;;;5063610;28;20106;-88
2023/09/21 10:41:52;;;;;;;4.15;1.08;;;;;;;;;;5069865;28;20051;-89
2023/09/21 10:44:36;;;;;;;1.15;0.70;;;;;;;;;;5064207;28;20020;-88
2023/09/21 10:47:01;;;;;;;2.03;1.20;;;;;;;;;;5073395;28;20069;-88
2023/09/21 10:49:33;;;;;;;0.47;0.40;;;;;;;;;;5071225;28;20033;-89
2023/09/21 10:51:59;;;;;;;0.95;0.30;;;;;;;;;;5072444;28;20013;-90
2023/09/21 10:54:25;;;;;;;5.60;0.75;;;;;;;;;;5065419;28;20061;-89
2023/09/21 10:56:50;;;;;;;1.38;0.77;;;;;;;;;;5069246;28;20352;-89
2023/09/21 10:59:16;;;;;;;3.22;1.30;;;;;;;;;;5075574;28;20500;-88
2023/09/21 11:01:45;;;;;;;4.15;1.30;;;;;;;;;;5075912;28;20096;-88
2023/09/21 11:04:11;;;;;;;3.10;1.10;;;;;;;;;;5074351;28;20040;-89
2023/09/21 11:06:37;;;;;;;3.08;1.20;;;;;;;;;;5071535;28;20024;-89
2023/09/21 11:09:02;;;;;;;2.35;1.17;;;;;;;;;;5073836;28;20026;-90
2023/09/21 11:11:28;;;;;;;2.60;1.20;;;;;;;;;;5064735;28;20025;-88
2023/09/21 11:13:53;;;;;;;5.25;1.20;;;;;;;;;;5071777;28;20046;-88
2023/09/21 11:16:21;;;;;;;1.02;0.75;;;;;;;;;;5071415;28;20020;-88
2023/09/21 11:18:55;;;;;;;4.38;0.90;;;;;;;;;;5059141;28;20021;-89
2023/09/21 11:21:22;;;;;;;1.83;0.90;;;;;;;;;;5057034;28;20025;-89
2023/09/21 11:23:49;;;;;;;1.13;0.82;;;;;;;;;;5082980;28;20051;-89
2023/09/21 11:26:15;;;;;;;4.57;0.80;;;;;;;;;;5067822;28;20384;-89
2023/09/21 11:28:41;;;;;;;0.95;0.50;;;;;;;;;;5070611;28;20029;-89
2023/09/21 11:31:08;;;;;;;4.35;0.80;;;;;;;;;;5067532;28;20455;-88
2023/09/21 11:33:34;;;;;;;1.63;0.80;;;;;;;;;;5072118;28;20024;-87
2023/09/21 11:35:59;;;;;;;1.60;0.90;;;;;;;;;;5072698;28;20017;-88
2023/09/21 11:38:25;;;;;;;2.63;0.90;;;;;;;;;;5072558;28;20525;-89
2023/09/21 11:40:50;;;;;;;1.52;0.88;;;;;;;;;;5070130;28;20012;-89
2023/09/21 11:43:16;;;;;;;0.57;0.50;;;;;;;;;;5072632;28;20020;-89
2023/09/21 11:45:45;;;;;;;0.80;0.50;;;;;;;;;;5072172;28;20032;-89
2023/09/21 11:48:12;;;;;;;4.32;0.82;;;;;;;;;;5070827;28;20479;-89
2023/09/21 11:50:43;;;;;;;2.85;0.60;;;;;;;;;;5068888;28;20045;-89
2023/09/21 11:53:08;;;;;;;1.60;0.77;;;;;;;;;;5097627;28;20056;-89
2023/09/21 11:55:36;;;;;;;0.73;0.55;;;;;;;;;;5060332;28;20033;-89
2023/09/21 11:58:07;;;;;;;1.35;0.50;;;;;;;;;;5073306;28;20029;-89
2023/09/21 12:00:45;;;;;;;0.90;0.50;;;;;;;;;;5067703;28;20182;-89
2023/09/21 12:03:15;;;;;;;1.67;0.50;;;;;;;;;;5056519;28;20028;-89
2023/09/21 12:05:44;;;;;;;0.98;0.60;;;;;;;;;;5067479;28;20475;-88
2023/09/21 12:08:11;;;;;;;2.92;0.50;;;;;;;;;;5065550;28;20021;-89
2023/09/21 12:10:36;;;;;;;1.52;0.85;;;;;;;;;;5069782;28;20074;-89
2023/09/21 12:13:03;;;;;;;1.08;0.60;;;;;;;;;;5072585;28;20021;-89
2023/09/21 12:15:28;;;;;;;0.90;0.68;;;;;;;;;;5072538;28;20107;-89
2023/09/21 12:17:53;;;;;;;2.42;0.73;;;;;;;;;;5072436;28;20475;-89
2023/09/21 12:20:20;;;;;;;0.60;0.50;;;;;;;;;;5072127;28;20089;-89
2023/09/21 12:22:45;;;;;;;0.77;0.40;;;;;;;;;;5069799;28;20032;-89
2023/09/21 12:25:11;;;;;;;0.88;0.50;;;;;;;;;;5074818;28;20021;-89
2023/09/21 12:27:37;;;;;;;1.10;0.63;;;;;;;;;;5060511;28;20040;-89
2023/09/21 12:30:05;;;;;;;3.45;0.45;;;;;;;;;;5064798;28;20024;-90
2023/09/21 12:32:31;;;;;;;0.75;0.45;;;;;;;;;;5075531;28;20082;-89
2023/09/21 12:34:57;;;;;;;1.20;0.60;;;;;;;;;;5071775;28;20020;-89
2023/09/21 12:37:22;;;;;;;2.22;0.80;;;;;;;;;;5064841;28;20032;-89
2023/09/21 12:39:47;;;;;;;1.20;0.70;;;;;;;;;;5075943;28;20035;-89
2023/09/21 12:42:14;;;;;;;2.33;1.48;;;;;;;;;;5076014;28;20040;-89
2023/09/21 12:44:40;;;;;;;1.85;0.90;;;;;;;;;;5075055;28;20353;-88
2023/09/21 12:47:08;;;;;;;4.05;0.90;;;;;;;;;;5075308;28;20051;-89
2023/09/21 12:49:33;;;;;;;2.83;0.75;;;;;;;;;;5075634;28;20037;-89
2023/09/21 12:51:59;;;;;;;0.95;0.70;;;;;;;;;;5075462;28;20107;-89
2023/09/21 12:54:27;;;;;;;0.77;0.55;;;;;;;;;;5072126;28;20024;-89
2023/09/21 12:56:52;;;;;;;1.30;0.73;;;;;;;;;;5074138;28;20405;-89
2023/09/21 12:59:17;;;;;;;1.00;0.70;;;;;;;;;;5070953;28;20039;-89
2023/09/21 13:01:43;;;;;;;2.40;0.70;;;;;;;;;;5062918;28;20116;-89
2023/09/21 13:04:08;;;;;;;2.10;0.70;;;;;;;;;;5060905;28;20028;-89
2023/09/21 13:06:34;;;;;;;2.53;0.90;;;;;;;;;;5063058;28;20530;-89
2023/09/21 13:08:59;;;;;;;1.65;0.90;;;;;;;;;;5057334;28;20029;-89
2023/09/21 13:11:25;;;;;;;1.52;0.90;;;;;;;;;;5068480;28;20034;-90
2023/09/21 13:13:50;;;;;;;1.95;1.02;;;;;;;;;;5075143;28;20021;-89
2023/09/21 13:16:16;;;;;;;4.53;0.75;;;;;;;;;;5073814;28;20044;-90
2023/09/21 13:18:42;;;;;;;2.80;0.82;;;;;;;;;;5065400;28;20056;-89
2023/09/21 13:21:10;;;;;;;2.95;0.80;;;;;;;;;;5060376;28;20036;-90
2023/09/21 13:23:37;;;;;;;1.15;0.70;;;;;;;;;;5063338;28;20478;-90
2023/09/21 13:26:03;;;;;;;1.65;0.82;;;;;;;;;;5056584;28;20109;-89
2023/09/21 13:28:28;;;;;;;1.20;0.70;;;;;;;;;;5074503;28;20468;-89
2023/09/21 13:30:53;;;;;;;1.45;0.57;;;;;;;;;;5063346;28;20025;-89
2023/09/21 13:33:19;;;;;;;1.20;0.65;;;;;;;;;;5074042;28;20017;-89
2023/09/21 13:35:44;;;;;;;1.98;0.70;;;;;;;;;;5073785;28;20207;-89
2023/09/21 13:38:10;;;;;;;1.85;0.82;;;;;;;;;;5073223;28;20028;-90
2023/09/21 13:40:38;;;;;;;1.55;0.60;;;;;;;;;;5062589;28;20021;-89
2023/09/21 13:43:04;;;;;;;2.05;1.10;;;;;;;;;;5074952;28;20033;-88
2023/09/21 13:45:29;;;;;;;1.55;0.80;;;;;;;;;;5061653;28;20032;-88
2023/09/21 13:47:54;;;;;;;1.63;0.55;;;;;;;;;;5074640;28;20024;-87
2023/09/21 13:50:20;;;;;;;2.15;0.65;;;;;;;;;;5074717;28;20490;-88
2023/09/21 13:52:45;;;;;;;1.38;0.60;;;;;;;;;;5073406;28;20017;-88
2023/09/21 13:55:13;;;;;;;1.35;0.60;;;;;;;;;;5068150;28;20044;-87
2023/09/21 13:57:40;;;;;;;0.85;0.52;;;;;;;;;;5072730;28;20027;-87
2023/09/21 14:00:07;;;;;;;0.70;0.40;;;;;;;;;;5072906;28;20051;-88
2023/09/21 14:02:33;;;;;;;0.80;0.52;;;;;;;;;;5073428;28;20044;-88
2023/09/21 14:04:58;;;;;;;1.25;0.70;;;;;;;;;;5074269;28;20031;-88
2023/09/21 14:07:25;;;;;;;1.15;0.60;;;;;;;;;;5074131;28;20019;-88
2023/09/21 14:09:50;;;;;;;0.80;0.52;;;;;;;;;;5074437;28;20495;-87
2023/09/21 14:12:15;;;;;;;0.73;0.60;;;;;;;;;;5074485;28;20024;-88
2023/09/21 14:14:40;;;;;;;0.60;0.60;;;;;;;;;;5073459;28;20017;-88
2023/09/21 14:17:06;;;;;;;2.30;0.50;;;;;;;;;;5073881;28;20032;-88
2023/09/21 14:19:31;;;;;;;2.33;0.60;;;;;;;;;;5074025;28;20028;-88
2023/09/21 14:21:59;;;;;;;2.60;0.60;;;;;;;;;;5074421;28;20040;-88
2023/09/21 14:24:25;;;;;;;1.85;0.75;;;;;;;;;;5073178;28;20040;-88
2023/09/21 14:26:50;;;;;;;0.73;0.47;;;;;;;;;;5073451;28;20074;-88
2023/09/21 14:29:16;;;;;;;1.33;0.68;;;;;;;;;;5059643;28;20024;-87
2023/09/21 14:31:42;;;;;;;1.10;0.80;;;;;;;;;;5073681;28;20405;-88
2023/09/21 14:34:07;;;;;;;2.83;1.23;;;;;;;;;;5073358;28;20447;-88
2023/09/21 14:36:33;;;;;;;3.28;2.35;;;;;;;;;;5059721;28;20039;-87
2023/09/21 14:38:59;;;;;;;1.95;1.02;;;;;;;;;;5074451;28;20396;-88
2023/09/21 14:41:24;;;;;;;0.90;0.38;;;;;;;;;;5072945;28;20028;-85
2023/09/21 14:43:52;;;;;;;2.25;0.35;;;;;;;;;;5072418;28;20203;-86